sensor_id;sensor_type;location;lat;lon;timestamp;P1;durP1;ratioP1;P2;durP2;ratioP2
76693;SDS011;65625;52.136;5.424;2023-03-07T00:01:42;10.82;;;4.30;;
76693;SDS011;65625;52.136;5.424;2023-03-07T00:04:09;9.90;;;5.05;;
76693;SDS011;65625;52.136;5.424;2023-03-07T00:06:35;9.45;;;4.47;;
76693;SDS011;65625;52.136;5.424;2023-03-07T00:09:02;7.55;;;4.82;;
76693;SDS011;65625;52.136;5.424;2023-03-07T00:11:29;9.50;;;4.82;;
76693;SDS011;65625;52.136;5.424;2023-03-07T00:13:55;11.68;;;5.20;;
76693;SDS011;65625;52.136;5.424;2023-03-07T00:16:22;9.30;;;4.53;;
76693;SDS011;65625;52.136;5.424;2023-03-07T00:18:49;13.20;;;4.78;;
76693;SDS011;65625;52.136;5.424;2023-03-07T00:21:17;9.07;;;4.10;;
76693;SDS011;65625;52.136;5.424;2023-03-07T00:23:46;8.23;;;4.05;;
76693;SDS011;65625;52.136;5.424;2023-03-07T00:26:18;9.32;;;4.32;;
76693;SDS011;65625;52.136;5.424;2023-03-07T00:28:47;8.30;;;3.97;;
76693;SDS011;65625;52.136;5.424;2023-03-07T00:31:16;8.93;;;3.83;;
76693;SDS011;65625;52.136;5.424;2023-03-07T00:33:43;7.07;;;3.20;;
76693;SDS011;65625;52.136;5.424;2023-03-07T00:36:11;8.85;;;4.15;;
76693;SDS011;65625;52.136;5.424;2023-03-07T00:38:40;11.45;;;4.28;;
76693;SDS011;65625;52.136;5.424;2023-03-07T00:41:08;13.02;;;4.20;;
76693;SDS011;65625;52.136;5.424;2023-03-07T00:43:37;8.50;;;3.53;;
76693;SDS011;65625;52.136;5.424;2023-03-07T00:46:04;6.55;;;3.13;;
76693;SDS011;65625;52.136;5.424;2023-03-07T00:48:32;8.13;;;3.35;;
76693;SDS011;65625;52.136;5.424;2023-03-07T00:51:00;10.07;;;3.58;;
76693;SDS011;65625;52.136;5.424;2023-03-07T00:53:27;7.38;;;3.55;;
76693;SDS011;65625;52.136;5.424;2023-03-07T00:55:54;12.95;;;4.03;;
76693;SDS011;65625;52.136;5.424;2023-03-07T00:58:25;8.00;;;2.97;;
76693;SDS011;65625;52.136;5.424;2023-03-07T01:00:53;9.18;;;3.53;;
76693;SDS011;65625;52.136;5.424;2023-03-07T01:03:21;8.90;;;3.53;;
76693;SDS011;65625;52.136;5.424;2023-03-07T01:05:48;9.05;;;3.35;;
76693;SDS011;65625;52.136;5.424;2023-03-07T01:08:15;7.57;;;3.30;;
76693;SDS011;65625;52.136;5.424;2023-03-07T01:10:43;10.93;;;3.30;;
76693;SDS011;65625;52.136;5.424;2023-03-07T01:13:10;8.40;;;3.40;;
76693;SDS011;65625;52.136;5.424;2023-03-07T01:15:37;9.20;;;3.92;;
76693;SDS011;65625;52.136;5.424;2023-03-07T01:18:05;9.25;;;3.75;;
76693;SDS011;65625;52.136;5.424;2023-03-07T01:20:33;10.93;;;3.20;;
76693;SDS011;65625;52.136;5.424;2023-03-07T01:23:01;7.40;;;2.80;;
76693;SDS011;65625;52.136;5.424;2023-03-07T01:25:28;6.57;;;2.78;;
76693;SDS011;65625;52.136;5.424;2023-03-07T01:27:55;9.85;;;2.67;;
76693;SDS011;65625;52.136;5.424;2023-03-07T01:30:26;8.32;;;2.03;;
76693;SDS011;65625;52.136;5.424;2023-03-07T01:32:55;6.00;;;2.33;;
76693;SDS011;65625;52.136;5.424;2023-03-07T01:35:23;9.98;;;2.60;;
76693;SDS011;65625;52.136;5.424;2023-03-07T01:37:53;5.65;;;2.42;;
76693;SDS011;65625;52.136;5.424;2023-03-07T01:40:21;5.45;;;1.92;;
76693;SDS011;65625;52.136;5.424;2023-03-07T01:42:50;6.00;;;2.17;;
76693;SDS011;65625;52.136;5.424;2023-03-07T01:47:59;8.07;;;2.28;;
76693;SDS011;65625;52.136;5.424;2023-03-07T01:50:26;9.05;;;1.85;;
76693;SDS011;65625;52.136;5.424;2023-03-07T01:52:54;3.80;;;1.48;;
76693;SDS011;65625;52.136;5.424;2023-03-07T01:55:28;7.18;;;1.60;;
76693;SDS011;65625;52.136;5.424;2023-03-07T01:58:09;8.55;;;1.92;;
76693;SDS011;65625;52.136;5.424;2023-03-07T02:00:39;10.13;;;2.55;;
76693;SDS011;65625;52.136;5.424;2023-03-07T02:03:10;4.80;;;2.15;;
76693;SDS011;65625;52.136;5.424;2023-03-07T02:05:46;3.10;;;1.60;;
76693;SDS011;65625;52.136;5.424;2023-03-07T02:08:18;5.57;;;1.65;;
76693;SDS011;65625;52.136;5.424;2023-03-07T02:10:47;9.60;;;1.50;;
76693;SDS011;65625;52.136;5.424;2023-03-07T02:13:14;6.82;;;1.75;;
76693;SDS011;65625;52.136;5.424;2023-03-07T02:15:42;3.50;;;1.40;;
76693;SDS011;65625;52.136;5.424;2023-03-07T02:18:09;7.55;;;1.75;;
76693;SDS011;65625;52.136;5.424;2023-03-07T02:26:03;8.27;;;1.80;;
76693;SDS011;65625;52.136;5.424;2023-03-07T02:28:51;5.88;;;1.70;;
76693;SDS011;65625;52.136;5.424;2023-03-07T02:31:19;3.20;;;1.33;;
76693;SDS011;65625;52.136;5.424;2023-03-07T02:33:46;5.00;;;1.45;;
76693;SDS011;65625;52.136;5.424;2023-03-07T02:36:21;7.68;;;1.83;;
76693;SDS011;65625;52.136;5.424;2023-03-07T02:38:58;8.23;;;1.95;;
76693;SDS011;65625;52.136;5.424;2023-03-07T02:41:28;2.65;;;1.30;;
76693;SDS011;65625;52.136;5.424;2023-03-07T02:44:00;5.07;;;1.50;;
76693;SDS011;65625;52.136;5.424;2023-03-07T02:46:27;6.40;;;1.38;;
76693;SDS011;65625;52.136;5.424;2023-03-07T02:48:53;6.03;;;1.60;;
76693;SDS011;65625;52.136;5.424;2023-03-07T02:51:20;6.18;;;1.60;;
76693;SDS011;65625;52.136;5.424;2023-03-07T02:53:46;9.27;;;1.75;;
76693;SDS011;65625;52.136;5.424;2023-03-07T02:56:13;4.03;;;1.50;;
76693;SDS011;65625;52.136;5.424;2023-03-07T02:58:40;8.25;;;1.48;;
76693;SDS011;65625;52.136;5.424;2023-03-07T03:01:06;4.47;;;1.67;;
76693;SDS011;65625;52.136;5.424;2023-03-07T03:03:33;9.25;;;1.77;;
76693;SDS011;65625;52.136;5.424;2023-03-07T03:05:59;5.97;;;1.50;;
76693;SDS011;65625;52.136;5.424;2023-03-07T03:08:26;5.53;;;1.50;;
76693;SDS011;65625;52.136;5.424;2023-03-07T03:10:53;7.93;;;1.50;;
76693;SDS011;65625;52.136;5.424;2023-03-07T03:13:23;5.30;;;1.40;;
76693;SDS011;65625;52.136;5.424;2023-03-07T03:15:53;5.50;;;1.40;;
76693;SDS011;65625;52.136;5.424;2023-03-07T03:18:23;7.28;;;1.77;;
76693;SDS011;65625;52.136;5.424;2023-03-07T03:20:53;4.20;;;1.05;;
76693;SDS011;65625;52.136;5.424;2023-03-07T03:23:19;8.00;;;1.60;;
76693;SDS011;65625;52.136;5.424;2023-03-07T03:25:55;4.78;;;1.30;;
76693;SDS011;65625;52.136;5.424;2023-03-07T03:28:23;6.60;;;1.63;;
76693;SDS011;65625;52.136;5.424;2023-03-07T03:30:56;7.32;;;1.40;;
76693;SDS011;65625;52.136;5.424;2023-03-07T03:33:25;7.60;;;1.67;;
76693;SDS011;65625;52.136;5.424;2023-03-07T03:35:55;6.50;;;1.70;;
76693;SDS011;65625;52.136;5.424;2023-03-07T03:38:23;4.47;;;1.50;;
76693;SDS011;65625;52.136;5.424;2023-03-07T03:40:51;14.68;;;1.42;;
76693;SDS011;65625;52.136;5.424;2023-03-07T03:43:17;4.13;;;1.73;;
76693;SDS011;65625;52.136;5.424;2023-03-07T03:45:52;5.85;;;1.17;;
76693;SDS011;65625;52.136;5.424;2023-03-07T03:48:21;5.55;;;1.40;;
76693;SDS011;65625;52.136;5.424;2023-03-07T03:50:47;9.05;;;1.70;;
76693;SDS011;65625;52.136;5.424;2023-03-07T03:53:14;3.22;;;1.40;;
76693;SDS011;65625;52.136;5.424;2023-03-07T03:55:41;3.83;;;1.25;;
76693;SDS011;65625;52.136;5.424;2023-03-07T03:58:07;9.65;;;3.67;;
76693;SDS011;65625;52.136;5.424;2023-03-07T04:00:34;4.60;;;1.27;;
76693;SDS011;65625;52.136;5.424;2023-03-07T04:03:00;7.25;;;2.08;;
76693;SDS011;65625;52.136;5.424;2023-03-07T04:05:27;12.18;;;1.83;;
76693;SDS011;65625;52.136;5.424;2023-03-07T04:07:53;5.90;;;1.45;;
76693;SDS011;65625;52.136;5.424;2023-03-07T04:10:20;6.65;;;1.88;;
76693;SDS011;65625;52.136;5.424;2023-03-07T04:12:46;7.07;;;1.52;;
76693;SDS011;65625;52.136;5.424;2023-03-07T04:15:13;7.60;;;1.05;;
76693;SDS011;65625;52.136;5.424;2023-03-07T04:17:39;3.33;;;1.40;;
76693;SDS011;65625;52.136;5.424;2023-03-07T04:20:06;3.60;;;1.33;;
76693;SDS011;65625;52.136;5.424;2023-03-07T04:22:38;7.60;;;1.27;;
76693;SDS011;65625;52.136;5.424;2023-03-07T04:25:05;9.15;;;2.92;;
76693;SDS011;65625;52.136;5.424;2023-03-07T04:27:32;7.60;;;1.50;;
76693;SDS011;65625;52.136;5.424;2023-03-07T04:30:01;6.32;;;1.63;;
76693;SDS011;65625;52.136;5.424;2023-03-07T04:32:27;6.13;;;1.23;;
76693;SDS011;65625;52.136;5.424;2023-03-07T04:34:54;5.20;;;1.20;;
76693;SDS011;65625;52.136;5.424;2023-03-07T04:37:20;5.28;;;1.23;;
76693;SDS011;65625;52.136;5.424;2023-03-07T04:39:47;5.45;;;1.30;;
76693;SDS011;65625;52.136;5.424;2023-03-07T04:42:14;4.93;;;1.02;;
76693;SDS011;65625;52.136;5.424;2023-03-07T04:44:41;4.53;;;1.27;;
76693;SDS011;65625;52.136;5.424;2023-03-07T04:47:07;4.05;;;1.20;;
76693;SDS011;65625;52.136;5.424;2023-03-07T04:49:34;6.35;;;1.45;;
76693;SDS011;65625;52.136;5.424;2023-03-07T04:52:03;6.25;;;1.13;;
76693;SDS011;65625;52.136;5.424;2023-03-07T04:54:33;6.18;;;1.40;;
76693;SDS011;65625;52.136;5.424;2023-03-07T04:57:01;5.47;;;1.02;;
76693;SDS011;65625;52.136;5.424;2023-03-07T04:59:28;7.38;;;1.10;;
76693;SDS011;65625;52.136;5.424;2023-03-07T05:01:54;4.03;;;1.05;;
76693;SDS011;65625;52.136;5.424;2023-03-07T05:04:21;5.43;;;1.33;;
76693;SDS011;65625;52.136;5.424;2023-03-07T05:06:47;5.45;;;0.90;;
76693;SDS011;65625;52.136;5.424;2023-03-07T05:09:14;6.35;;;1.20;;
76693;SDS011;65625;52.136;5.424;2023-03-07T05:11:41;4.80;;;1.35;;
76693;SDS011;65625;52.136;5.424;2023-03-07T05:14:08;6.22;;;1.20;;
76693;SDS011;65625;52.136;5.424;2023-03-07T05:16:34;6.28;;;1.40;;
76693;SDS011;65625;52.136;5.424;2023-03-07T05:19:01;1.48;;;0.55;;
76693;SDS011;65625;52.136;5.424;2023-03-07T05:21:31;2.05;;;0.50;;
76693;SDS011;65625;52.136;5.424;2023-03-07T05:23:57;2.95;;;0.50;;
76693;SDS011;65625;52.136;5.424;2023-03-07T05:26:24;6.57;;;0.88;;
76693;SDS011;65625;52.136;5.424;2023-03-07T05:28:50;3.42;;;0.70;;
76693;SDS011;65625;52.136;5.424;2023-03-07T05:31:17;4.47;;;0.82;;
76693;SDS011;65625;52.136;5.424;2023-03-07T05:33:44;9.98;;;0.90;;
76693;SDS011;65625;52.136;5.424;2023-03-07T05:36:12;4.88;;;0.55;;
76693;SDS011;65625;52.136;5.424;2023-03-07T05:38:39;1.60;;;0.55;;
76693;SDS011;65625;52.136;5.424;2023-03-07T05:41:05;1.55;;;0.40;;
76693;SDS011;65625;52.136;5.424;2023-03-07T05:43:32;3.25;;;0.40;;
76693;SDS011;65625;52.136;5.424;2023-03-07T05:45:59;3.65;;;0.60;;
76693;SDS011;65625;52.136;5.424;2023-03-07T05:48:25;2.22;;;0.30;;
76693;SDS011;65625;52.136;5.424;2023-03-07T05:50:52;2.85;;;0.60;;
76693;SDS011;65625;52.136;5.424;2023-03-07T05:53:19;3.63;;;0.55;;
76693;SDS011;65625;52.136;5.424;2023-03-07T05:55:46;2.58;;;0.40;;
76693;SDS011;65625;52.136;5.424;2023-03-07T05:58:15;2.15;;;0.65;;
76693;SDS011;65625;52.136;5.424;2023-03-07T06:00:43;2.60;;;0.43;;
76693;SDS011;65625;52.136;5.424;2023-03-07T06:03:10;4.30;;;0.52;;
76693;SDS011;65625;52.136;5.424;2023-03-07T06:05:37;1.30;;;0.30;;
76693;SDS011;65625;52.136;5.424;2023-03-07T06:08:04;2.33;;;0.60;;
76693;SDS011;65625;52.136;5.424;2023-03-07T06:10:31;0.85;;;0.35;;
76693;SDS011;65625;52.136;5.424;2023-03-07T06:13:01;3.05;;;0.32;;
76693;SDS011;65625;52.136;5.424;2023-03-07T06:15:28;2.72;;;0.30;;
76693;SDS011;65625;52.136;5.424;2023-03-07T06:18:00;3.15;;;0.40;;
76693;SDS011;65625;52.136;5.424;2023-03-07T06:20:27;2.50;;;0.40;;
76693;SDS011;65625;52.136;5.424;2023-03-07T06:22:54;4.22;;;0.32;;
76693;SDS011;65625;52.136;5.424;2023-03-07T06:25:20;6.63;;;0.85;;
76693;SDS011;65625;52.136;5.424;2023-03-07T06:27:48;3.72;;;0.50;;
76693;SDS011;65625;52.136;5.424;2023-03-07T06:30:15;5.40;;;0.70;;
76693;SDS011;65625;52.136;5.424;2023-03-07T06:32:41;1.67;;;0.80;;
76693;SDS011;65625;52.136;5.424;2023-03-07T06:35:08;2.30;;;0.70;;
76693;SDS011;65625;52.136;5.424;2023-03-07T06:37:35;3.03;;;0.60;;
76693;SDS011;65625;52.136;5.424;2023-03-07T06:40:02;4.05;;;0.55;;
76693;SDS011;65625;52.136;5.424;2023-03-07T06:42:33;4.10;;;0.80;;
76693;SDS011;65625;52.136;5.424;2023-03-07T06:45:00;4.88;;;0.80;;
76693;SDS011;65625;52.136;5.424;2023-03-07T06:47:27;2.22;;;0.43;;
76693;SDS011;65625;52.136;5.424;2023-03-07T06:49:54;1.83;;;0.70;;
76693;SDS011;65625;52.136;5.424;2023-03-07T06:52:21;3.45;;;0.70;;
76693;SDS011;65625;52.136;5.424;2023-03-07T06:54:48;2.08;;;0.80;;
76693;SDS011;65625;52.136;5.424;2023-03-07T06:57:15;1.77;;;0.40;;
76693;SDS011;65625;52.136;5.424;2023-03-07T06:59:42;1.90;;;0.57;;
76693;SDS011;65625;52.136;5.424;2023-03-07T07:02:10;4.57;;;0.70;;
76693;SDS011;65625;52.136;5.424;2023-03-07T07:04:39;4.28;;;0.55;;
76693;SDS011;65625;52.136;5.424;2023-03-07T07:07:06;2.55;;;0.70;;
76693;SDS011;65625;52.136;5.424;2023-03-07T07:09:33;1.55;;;0.60;;
76693;SDS011;65625;52.136;5.424;2023-03-07T07:11:59;5.97;;;1.30;;
76693;SDS011;65625;52.136;5.424;2023-03-07T07:14:26;3.40;;;0.80;;
76693;SDS011;65625;52.136;5.424;2023-03-07T07:16:53;5.05;;;0.95;;
76693;SDS011;65625;52.136;5.424;2023-03-07T07:19:19;2.75;;;0.70;;
76693;SDS011;65625;52.136;5.424;2023-03-07T07:21:47;2.08;;;0.68;;
76693;SDS011;65625;52.136;5.424;2023-03-07T07:24:13;4.93;;;0.90;;
76693;SDS011;65625;52.136;5.424;2023-03-07T07:26:40;2.17;;;1.00;;
76693;SDS011;65625;52.136;5.424;2023-03-07T07:29:07;2.60;;;0.80;;
76693;SDS011;65625;52.136;5.424;2023-03-07T07:31:34;3.08;;;1.25;;
76693;SDS011;65625;52.136;5.424;2023-03-07T07:34:01;4.03;;;0.90;;
76693;SDS011;65625;52.136;5.424;2023-03-07T07:36:30;1.83;;;0.90;;
76693;SDS011;65625;52.136;5.424;2023-03-07T07:38:57;2.78;;;1.17;;
76693;SDS011;65625;52.136;5.424;2023-03-07T07:41:25;3.45;;;1.30;;
76693;SDS011;65625;52.136;5.424;2023-03-07T07:43:53;5.07;;;1.30;;
76693;SDS011;65625;52.136;5.424;2023-03-07T07:46:26;4.15;;;1.17;;
76693;SDS011;65625;52.136;5.424;2023-03-07T07:48:55;4.07;;;1.23;;
76693;SDS011;65625;52.136;5.424;2023-03-07T07:51:24;2.92;;;1.35;;
76693;SDS011;65625;52.136;5.424;2023-03-07T07:53:51;5.22;;;1.33;;
76693;SDS011;65625;52.136;5.424;2023-03-07T07:56:17;3.45;;;1.50;;
76693;SDS011;65625;52.136;5.424;2023-03-07T07:58:44;3.05;;;1.35;;
76693;SDS011;65625;52.136;5.424;2023-03-07T08:01:18;2.53;;;1.40;;
76693;SDS011;65625;52.136;5.424;2023-03-07T08:03:49;3.75;;;1.60;;
76693;SDS011;65625;52.136;5.424;2023-03-07T08:06:19;2.90;;;1.33;;
76693;SDS011;65625;52.136;5.424;2023-03-07T08:08:48;3.60;;;1.65;;
76693;SDS011;65625;52.136;5.424;2023-03-07T08:11:15;2.53;;;1.42;;
76693;SDS011;65625;52.136;5.424;2023-03-07T08:13:42;3.55;;;1.48;;
76693;SDS011;65625;52.136;5.424;2023-03-07T08:16:13;2.88;;;1.58;;
76693;SDS011;65625;52.136;5.424;2023-03-07T08:18:41;2.85;;;1.40;;
76693;SDS011;65625;52.136;5.424;2023-03-07T08:21:12;2.72;;;1.50;;
76693;SDS011;65625;52.136;5.424;2023-03-07T08:23:39;3.67;;;1.80;;
76693;SDS011;65625;52.136;5.424;2023-03-07T08:26:06;4.90;;;1.67;;
76693;SDS011;65625;52.136;5.424;2023-03-07T08:28:38;3.30;;;1.52;;
76693;SDS011;65625;52.136;5.424;2023-03-07T08:31:06;5.70;;;2.10;;
76693;SDS011;65625;52.136;5.424;2023-03-07T08:33:42;3.85;;;1.80;;
76693;SDS011;65625;52.136;5.424;2023-03-07T08:36:11;3.40;;;1.67;;
76693;SDS011;65625;52.136;5.424;2023-03-07T08:38:38;2.80;;;1.45;;
76693;SDS011;65625;52.136;5.424;2023-03-07T08:41:05;3.15;;;1.75;;
76693;SDS011;65625;52.136;5.424;2023-03-07T08:43:34;3.70;;;1.75;;
76693;SDS011;65625;52.136;5.424;2023-03-07T08:46:02;3.53;;;1.60;;
76693;SDS011;65625;52.136;5.424;2023-03-07T08:48:29;4.00;;;1.58;;
76693;SDS011;65625;52.136;5.424;2023-03-07T08:50:56;3.63;;;1.92;;
76693;SDS011;65625;52.136;5.424;2023-03-07T08:53:22;3.47;;;1.73;;
76693;SDS011;65625;52.136;5.424;2023-03-07T08:55:49;2.65;;;1.50;;
76693;SDS011;65625;52.136;5.424;2023-03-07T08:58:15;4.50;;;1.73;;
76693;SDS011;65625;52.136;5.424;2023-03-07T09:00:42;4.43;;;1.90;;
76693;SDS011;65625;52.136;5.424;2023-03-07T09:03:09;3.03;;;1.60;;
76693;SDS011;65625;52.136;5.424;2023-03-07T09:05:36;3.53;;;1.85;;
76693;SDS011;65625;52.136;5.424;2023-03-07T09:08:06;6.63;;;1.75;;
76693;SDS011;65625;52.136;5.424;2023-03-07T09:10:36;5.30;;;1.70;;
76693;SDS011;65625;52.136;5.424;2023-03-07T09:13:03;5.13;;;1.90;;
76693;SDS011;65625;52.136;5.424;2023-03-07T09:15:30;3.42;;;2.20;;
76693;SDS011;65625;52.136;5.424;2023-03-07T09:17:57;4.05;;;1.70;;
76693;SDS011;65625;52.136;5.424;2023-03-07T09:20:23;4.95;;;1.83;;
76693;SDS011;65625;52.136;5.424;2023-03-07T09:22:50;2.92;;;1.70;;
76693;SDS011;65625;52.136;5.424;2023-03-07T09:25:19;3.90;;;1.60;;
76693;SDS011;65625;52.136;5.424;2023-03-07T09:27:45;4.20;;;2.05;;
76693;SDS011;65625;52.136;5.424;2023-03-07T09:30:12;5.90;;;2.05;;
76693;SDS011;65625;52.136;5.424;2023-03-07T09:32:39;2.78;;;1.58;;
76693;SDS011;65625;52.136;5.424;2023-03-07T09:35:06;5.05;;;1.80;;
76693;SDS011;65625;52.136;5.424;2023-03-07T09:37:33;3.30;;;1.70;;
76693;SDS011;65625;52.136;5.424;2023-03-07T09:40:00;4.90;;;1.50;;
76693;SDS011;65625;52.136;5.424;2023-03-07T09:42:30;2.55;;;1.40;;
76693;SDS011;65625;52.136;5.424;2023-03-07T09:48:32;4.10;;;1.42;;
76693;SDS011;65625;52.136;5.424;2023-03-07T09:51:13;3.70;;;1.70;;
76693;SDS011;65625;52.136;5.424;2023-03-07T09:53:51;3.60;;;1.10;;
76693;SDS011;65625;52.136;5.424;2023-03-07T09:56:41;3.25;;;1.25;;
76693;SDS011;65625;52.136;5.424;2023-03-07T10:02:41;4.25;;;1.05;;
76693;SDS011;65625;52.136;5.424;2023-03-07T10:07:41;3.10;;;0.95;;
76693;SDS011;65625;52.136;5.424;2023-03-07T10:10:52;4.32;;;1.52;;
76693;SDS011;65625;52.136;5.424;2023-03-07T10:15:43;5.15;;;1.20;;
76693;SDS011;65625;52.136;5.424;2023-03-07T10:18:20;2.80;;;0.85;;
76693;SDS011;65625;52.136;5.424;2023-03-07T10:21:22;3.10;;;1.10;;
76693;SDS011;65625;52.136;5.424;2023-03-07T10:24:04;4.97;;;1.08;;
76693;SDS011;65625;52.136;5.424;2023-03-07T10:26:43;1.90;;;1.08;;
76693;SDS011;65625;52.136;5.424;2023-03-07T10:29:26;4.57;;;1.15;;
76693;SDS011;65625;52.136;5.424;2023-03-07T10:32:11;8.63;;;1.23;;
76693;SDS011;65625;52.136;5.424;2023-03-07T10:34:44;2.15;;;0.85;;
76693;SDS011;65625;52.136;5.424;2023-03-07T10:37:15;2.35;;;1.00;;
76693;SDS011;65625;52.136;5.424;2023-03-07T10:39:54;3.05;;;0.90;;
76693;SDS011;65625;52.136;5.424;2023-03-07T10:42:22;3.00;;;0.85;;
76693;SDS011;65625;52.136;5.424;2023-03-07T10:44:50;3.83;;;0.90;;
76693;SDS011;65625;52.136;5.424;2023-03-07T10:47:21;3.92;;;1.00;;
76693;SDS011;65625;52.136;5.424;2023-03-07T10:49:59;3.10;;;1.30;;
76693;SDS011;65625;52.136;5.424;2023-03-07T10:52:46;2.67;;;0.80;;
76693;SDS011;65625;52.136;5.424;2023-03-07T10:55:28;2.45;;;0.65;;
76693;SDS011;65625;52.136;5.424;2023-03-07T11:00:40;3.70;;;0.70;;
76693;SDS011;65625;52.136;5.424;2023-03-07T11:03:30;4.35;;;0.80;;
76693;SDS011;65625;52.136;5.424;2023-03-07T11:11:39;2.15;;;0.60;;
76693;SDS011;65625;52.136;5.424;2023-03-07T11:14:13;3.20;;;0.60;;
76693;SDS011;65625;52.136;5.424;2023-03-07T11:16:53;5.50;;;0.65;;
76693;SDS011;65625;52.136;5.424;2023-03-07T11:21:57;3.05;;;0.70;;
76693;SDS011;65625;52.136;5.424;2023-03-07T11:24:29;1.00;;;0.40;;
76693;SDS011;65625;52.136;5.424;2023-03-07T11:26:58;1.40;;;0.30;;
76693;SDS011;65625;52.136;5.424;2023-03-07T11:29:25;1.70;;;0.35;;
76693;SDS011;65625;52.136;5.424;2023-03-07T11:34:35;3.65;;;0.93;;
76693;SDS011;65625;52.136;5.424;2023-03-07T11:43:00;3.83;;;0.73;;
76693;SDS011;65625;52.136;5.424;2023-03-07T11:45:31;3.65;;;0.90;;
76693;SDS011;65625;52.136;5.424;2023-03-07T11:50:54;4.30;;;0.98;;
76693;SDS011;65625;52.136;5.424;2023-03-07T11:53:27;4.05;;;0.88;;
76693;SDS011;65625;52.136;5.424;2023-03-07T12:13:42;2.78;;;0.82;;
76693;SDS011;65625;52.136;5.424;2023-03-07T12:24:38;2.58;;;0.70;;
76693;SDS011;65625;52.136;5.424;2023-03-07T12:27:34;1.73;;;0.60;;
76693;SDS011;65625;52.136;5.424;2023-03-07T12:30:11;1.85;;;0.52;;
76693;SDS011;65625;52.136;5.424;2023-03-07T12:32:45;0.75;;;0.22;;
76693;SDS011;65625;52.136;5.424;2023-03-07T12:35:17;1.65;;;0.40;;
76693;SDS011;65625;52.136;5.424;2023-03-07T12:37:54;2.60;;;0.30;;
76693;SDS011;65625;52.136;5.424;2023-03-07T12:40:54;1.92;;;0.30;;
76693;SDS011;65625;52.136;5.424;2023-03-07T12:43:26;2.13;;;0.60;;
76693;SDS011;65625;52.136;5.424;2023-03-07T12:46:02;1.55;;;0.22;;
76693;SDS011;65625;52.136;5.424;2023-03-07T12:48:53;0.68;;;0.13;;
76693;SDS011;65625;52.136;5.424;2023-03-07T12:51:26;1.00;;;0.30;;
76693;SDS011;65625;52.136;5.424;2023-03-07T12:56:58;2.80;;;0.35;;
76693;SDS011;65625;52.136;5.424;2023-03-07T12:59:31;1.70;;;0.60;;
76693;SDS011;65625;52.136;5.424;2023-03-07T13:02:10;3.75;;;0.47;;
76693;SDS011;65625;52.136;5.424;2023-03-07T13:05:17;1.10;;;0.30;;
76693;SDS011;65625;52.136;5.424;2023-03-07T13:07:46;1.75;;;0.30;;
76693;SDS011;65625;52.136;5.424;2023-03-07T13:10:18;1.77;;;0.40;;
76693;SDS011;65625;52.136;5.424;2023-03-07T13:12:47;1.00;;;0.30;;
76693;SDS011;65625;52.136;5.424;2023-03-07T13:27:45;0.85;;;0.22;;
76693;SDS011;65625;52.136;5.424;2023-03-07T13:37:57;3.50;;;0.40;;
76693;SDS011;65625;52.136;5.424;2023-03-07T13:42:50;2.78;;;0.52;;
76693;SDS011;65625;52.136;5.424;2023-03-07T13:48:09;4.78;;;0.60;;
76693;SDS011;65625;52.136;5.424;2023-03-07T13:50:38;1.42;;;0.43;;
76693;SDS011;65625;52.136;5.424;2023-03-07T13:55:54;2.22;;;0.40;;
76693;SDS011;65625;52.136;5.424;2023-03-07T13:58:32;3.90;;;0.60;;
76693;SDS011;65625;52.136;5.424;2023-03-07T14:01:01;4.75;;;0.70;;
76693;SDS011;65625;52.136;5.424;2023-03-07T14:03:53;1.75;;;0.68;;
76693;SDS011;65625;52.136;5.424;2023-03-07T14:06:27;3.17;;;0.65;;
76693;SDS011;65625;52.136;5.424;2023-03-07T14:08:59;4.57;;;0.80;;
76693;SDS011;65625;52.136;5.424;2023-03-07T14:11:36;3.28;;;0.70;;
76693;SDS011;65625;52.136;5.424;2023-03-07T14:25:39;0.57;;;0.30;;
76693;SDS011;65625;52.136;5.424;2023-03-07T14:28:19;2.47;;;0.40;;
76693;SDS011;65625;52.136;5.424;2023-03-07T14:30:59;1.38;;;0.55;;
76693;SDS011;65625;52.136;5.424;2023-03-07T14:33:31;1.98;;;0.50;;
76693;SDS011;65625;52.136;5.424;2023-03-07T14:36:03;1.75;;;0.32;;
76693;SDS011;65625;52.136;5.424;2023-03-07T14:38:45;3.25;;;0.50;;
76693;SDS011;65625;52.136;5.424;2023-03-07T14:47:15;1.30;;;0.47;;
76693;SDS011;65625;52.136;5.424;2023-03-07T14:49:59;5.25;;;0.40;;
76693;SDS011;65625;52.136;5.424;2023-03-07T14:52:33;2.03;;;0.38;;
76693;SDS011;65625;52.136;5.424;2023-03-07T14:55:01;2.03;;;0.60;;
76693;SDS011;65625;52.136;5.424;2023-03-07T15:00:20;1.35;;;0.30;;
76693;SDS011;65625;52.136;5.424;2023-03-07T15:02:58;3.47;;;0.50;;
76693;SDS011;65625;52.136;5.424;2023-03-07T15:05:33;4.70;;;0.40;;
76693;SDS011;65625;52.136;5.424;2023-03-07T15:08:01;0.70;;;0.30;;
76693;SDS011;65625;52.136;5.424;2023-03-07T15:10:33;2.05;;;0.40;;
76693;SDS011;65625;52.136;5.424;2023-03-07T15:13:07;1.65;;;0.38;;
76693;SDS011;65625;52.136;5.424;2023-03-07T15:15:47;1.83;;;0.38;;
76693;SDS011;65625;52.136;5.424;2023-03-07T15:18:19;0.77;;;0.30;;
76693;SDS011;65625;52.136;5.424;2023-03-07T15:20:50;3.88;;;0.40;;
76693;SDS011;65625;52.136;5.424;2023-03-07T15:23:20;1.25;;;0.35;;
76693;SDS011;65625;52.136;5.424;2023-03-07T15:25:59;3.20;;;0.50;;
76693;SDS011;65625;52.136;5.424;2023-03-07T15:28:31;0.73;;;0.30;;
76693;SDS011;65625;52.136;5.424;2023-03-07T15:31:02;1.02;;;0.40;;
76693;SDS011;65625;52.136;5.424;2023-03-07T15:33:30;4.03;;;0.43;;
76693;SDS011;65625;52.136;5.424;2023-03-07T15:36:05;0.98;;;0.38;;
76693;SDS011;65625;52.136;5.424;2023-03-07T15:39:12;1.88;;;0.32;;
76693;SDS011;65625;52.136;5.424;2023-03-07T15:42:06;2.03;;;0.22;;
76693;SDS011;65625;52.136;5.424;2023-03-07T15:44:33;1.83;;;0.40;;
76693;SDS011;65625;52.136;5.424;2023-03-07T15:47:10;1.33;;;0.22;;
76693;SDS011;65625;52.136;5.424;2023-03-07T15:49:43;1.85;;;0.35;;
76693;SDS011;65625;52.136;5.424;2023-03-07T15:52:18;3.08;;;0.75;;
76693;SDS011;65625;52.136;5.424;2023-03-07T15:54:48;1.75;;;0.47;;
76693;SDS011;65625;52.136;5.424;2023-03-07T15:57:39;3.20;;;0.40;;
76693;SDS011;65625;52.136;5.424;2023-03-07T16:00:18;0.90;;;0.38;;
76693;SDS011;65625;52.136;5.424;2023-03-07T16:02:47;0.80;;;0.47;;
76693;SDS011;65625;52.136;5.424;2023-03-07T16:07:45;1.42;;;0.70;;
76693;SDS011;65625;52.136;5.424;2023-03-07T16:10:12;1.35;;;0.45;;
76693;SDS011;65625;52.136;5.424;2023-03-07T16:12:38;2.90;;;0.60;;
76693;SDS011;65625;52.136;5.424;2023-03-07T16:15:14;1.63;;;0.50;;
76693;SDS011;65625;52.136;5.424;2023-03-07T16:17:43;3.17;;;0.60;;
76693;SDS011;65625;52.136;5.424;2023-03-07T16:20:13;5.25;;;0.80;;
76693;SDS011;65625;52.136;5.424;2023-03-07T16:22:41;2.75;;;0.40;;
76693;SDS011;65625;52.136;5.424;2023-03-07T16:25:09;1.35;;;0.40;;
76693;SDS011;65625;52.136;5.424;2023-03-07T16:27:37;3.85;;;0.80;;
76693;SDS011;65625;52.136;5.424;2023-03-07T16:30:14;2.25;;;0.77;;
76693;SDS011;65625;52.136;5.424;2023-03-07T16:32:42;1.23;;;0.57;;
76693;SDS011;65625;52.136;5.424;2023-03-07T16:35:13;2.92;;;0.88;;
76693;SDS011;65625;52.136;5.424;2023-03-07T16:37:41;1.73;;;0.70;;
76693;SDS011;65625;52.136;5.424;2023-03-07T16:40:09;3.33;;;0.95;;
76693;SDS011;65625;52.136;5.424;2023-03-07T16:42:36;3.47;;;0.80;;
76693;SDS011;65625;52.136;5.424;2023-03-07T16:45:03;2.78;;;0.88;;
76693;SDS011;65625;52.136;5.424;2023-03-07T16:47:36;3.05;;;0.90;;
76693;SDS011;65625;52.136;5.424;2023-03-07T16:50:04;2.58;;;0.98;;
76693;SDS011;65625;52.136;5.424;2023-03-07T16:52:37;3.53;;;1.10;;
76693;SDS011;65625;52.136;5.424;2023-03-07T16:55:04;3.15;;;0.90;;
76693;SDS011;65625;52.136;5.424;2023-03-07T16:57:30;2.88;;;1.10;;
76693;SDS011;65625;52.136;5.424;2023-03-07T16:59:58;2.20;;;1.10;;
76693;SDS011;65625;52.136;5.424;2023-03-07T17:02:25;3.45;;;1.08;;
76693;SDS011;65625;52.136;5.424;2023-03-07T17:04:52;2.90;;;0.63;;
76693;SDS011;65625;52.136;5.424;2023-03-07T17:07:19;3.55;;;1.20;;
76693;SDS011;65625;52.136;5.424;2023-03-07T17:09:48;3.05;;;1.10;;